DW0479 Weather Reports


time (UTC)temp
C
wind
direction
speed
KPH
gust
KPH
rain 1hr
cm
rain 24hr
cm
rain mn
cm
humidity
%
barometer
mb
20240614125647 25 254 1.6 6.4 0.00 0.08 0.00 95 1013.2
20240614124644 25 212 3.2 6.4 0.00 0.08 0.00 95 1013.2
20240614123648 25 212 3.2 6.4 0.00 0.08 0.00 95 1013.2
20240614122636 24 200 3.2 6.4 0.00 0.08 0.00 95 1013.2
20240614121638 24 187 0.0 0.0 0.00 0.08 0.00 95 1013.3
20240614120638 24 187 0.0 0.0 0.00 0.08 0.00 95 1013.3
20240614115638 23 185 0.0 3.2 0.00 0.08 0.00 95 1013.3
20240614115125 23 183 0.0 0.0 0.00 0.08 0.00 95 1013.4
20240614113627 23 183 0.0 0.0 0.00 0.08 0.00 95 1013.4
20240614112627 23 183 0.0 0.0 0.00 0.08 0.00 95 1013.2
20240614111624 23 181 0.0 0.0 0.00 0.08 0.00 95 1013.0
20240614110625 23 183 0.0 0.0 0.00 0.08 0.00 95 1012.8
20240614105624 23 183 0.0 0.0 0.00 0.08 0.00 95 1012.7
20240614104622 23 183 0.0 0.0 0.00 0.08 0.00 95 1012.5
20240614104054 22 188 0.0 0.0 0.00 0.08 0.00 95 1012.3
20240614102624 22 188 0.0 0.0 0.00 0.08 0.00 95 1012.3
20240614101622 22 187 0.0 0.0 0.00 0.08 0.00 95 1012.3
20240614100620 22 187 0.0 0.0 0.00 0.08 0.00 95 1012.3
20240614095620 22 187 0.0 0.0 0.00 0.08 0.00 95 1012.2
20240614095056 22 187 0.0 0.0 0.00 0.08 0.00 95 1012.0
20240614093622 22 187 0.0 0.0 0.00 0.08 0.00 95 1011.8
20240614092620 22 187 0.0 0.0 0.00 0.08 0.00 95 1011.7
20240614091620 22 187 0.0 0.0 0.00 0.08 0.00 95 1011.6
20240614090618 22 187 0.0 0.0 0.00 0.08 0.00 94 1011.4
20240614085618 22 187 0.0 0.0 0.00 0.08 0.00 94 1011.3
20240614085551 22 187 0.0 1.6 0.00 0.08 0.00 94 1011.3
20240614083620 22 187 0.0 4.8 0.00 0.08 0.00 94 1011.1
20240614082614 22 187 0.0 1.6 0.00 0.08 0.00 94 1011.1
20240614081612 23 187 0.0 4.8 0.00 0.08 0.00 94 1011.0
20240614081051 22 187 1.6 4.8 0.00 0.08 0.00 94 1011.1
20240614075611 22 187 0.0 1.6 0.00 0.08 0.00 94 1011.0
20240614074610 22 187 0.0 1.6 0.00 0.08 0.00 94 1010.9
20240614073612 23 187 1.6 6.4 0.00 0.08 0.00 94 1011.0
20240614072611 23 187 0.0 4.8 0.00 0.08 0.00 94 1011.0
20240614071609 22 187 0.0 0.0 0.00 0.08 0.00 94 1011.0
20240614070604 23 187 0.0 0.0 0.00 0.08 0.00 94 1011.2
20240614065604 23 187 0.0 0.0 0.00 0.08 0.00 94 1011.1
20240614064602 23 187 0.0 0.0 0.00 0.08 0.00 94 1011.0
20240614063604 23 187 0.0 1.6 0.00 0.08 0.00 94 1011.0
20240614062602 23 187 1.6 4.8 0.00 0.08 0.00 94 1011.3
20240614061604 23 187 1.6 4.8 0.00 0.08 0.00 94 1011.4
20240614060603 23 187 0.0 4.8 0.00 0.08 0.00 94 1011.6
20240614055603 23 187 0.0 0.0 0.00 0.08 0.00 94 1011.7
20240614054602 23 187 0.0 0.0 0.00 0.08 0.00 94 1011.8
20240614053603 23 187 0.0 0.0 0.00 0.08 0.00 94 1012.0
20240614052602 23 187 0.0 4.8 0.00 0.08 0.00 94 1012.2
20240614051600 23 187 3.2 6.4 0.00 0.08 0.00 94 1012.2
20240614050559 23 187 3.2 11.3 0.00 0.08 0.00 94 1012.3
20240614045559 23 180 3.2 9.7 0.00 0.08 0.00 94 1012.3
20240614044559 23 164 3.2 6.4 0.00 0.08 0.00 94 1012.4
20240614043559 23 148 3.2 9.7 0.00 0.08 0.00 94 1012.5
20240614042558 23 138 3.2 8.0 0.00 0.08 0.00 94 1012.6
20240614041559 23 164 3.2 6.4 0.00 0.08 0.00 94 1012.7
20240614040555 23 88 1.6 4.8 0.00 0.08 0.00 93 1012.8
20240614035553 23 34 0.0 3.2 0.00 0.08 0.08 93 1012.7
20240614034554 24 34 0.0 4.8 0.00 0.08 0.08 94 1012.9
20240614033550 23 34 3.2 6.4 0.00 0.08 0.08 93 1012.9
20240614032547 23 50 1.6 4.8 0.00 0.08 0.08 93 1012.9
20240614031547 23 336 3.2 4.8 0.00 0.08 0.08 93 1012.7
20240614030547 23 335 3.2 6.4 0.00 0.08 0.08 93 1012.6
20240614025541 23 121 1.6 4.8 0.00 0.08 0.08 93 1012.5
20240614025027 23 121 0.0 1.6 0.00 0.08 0.08 93 1012.3
20240614024022 23 121 1.6 6.4 0.00 0.08 0.08 93 1012.0
20240614022541 23 109 1.6 6.4 0.03 0.08 0.08 93 1011.7
20240614021539 23 107 1.6 6.4 0.03 0.08 0.08 92 1011.6
20240614020537 23 345 1.6 4.8 0.05 0.08 0.08 92 1011.6
20240614015536 23 347 1.6 4.8 0.05 0.08 0.08 92 1011.6
20240614014537 23 348 1.6 9.7 0.05 0.08 0.08 92 1011.6
20240614013537 23 345 0.0 4.8 0.05 0.08 0.08 92 1011.8
20240614012536 23 310 3.2 6.4 0.03 0.05 0.05 91 1011.7
20240614011536 24 316 1.6 6.4 0.03 0.05 0.05 91 1011.8
20240614011454 23 326 0.0 3.2 0.03 0.03 0.03 91 1011.7
20240614005523 24 326 1.6 6.4 0.03 0.03 0.03 90 1012.1
20240614004524 24 345 3.2 9.7 0.03 0.03 0.03 90 1012.1
20240614003517 25 296 9.7 17.7 0.03 0.03 0.03 91 1012.1
20240614002516 25 354 6.4 12.9 0.03 0.03 0.03 91 1012.1
20240614002001 25 316 3.2 8.0 0.03 0.03 0.03 90 1011.9
20240614000957 26 35 3.2 6.4 0.00 0.00 0.00 90 1012.0
20240613235505 26 38 6.4 17.7 0.00 0.00 0.00 88 1011.7
20240613234504 26 5 4.8 14.5 0.00 0.00 0.00 86 1011.7
20240613233503 27 359 9.7 20.9 0.00 0.00 0.00 84 1011.6
20240613233005 28 55 1.6 12.9 0.00 0.00 0.00 79 1011.6
20240613231942 27 268 3.2 6.4 0.00 0.00 0.00 78 1011.3
20240613230942 28 299 3.2 12.9 0.00 0.00 0.00 77 1011.2
20240613225941 28 4 4.8 14.5 0.00 0.00 0.00 74 1011.3
20240613224456 29 324 3.2 8.0 0.00 0.00 0.00 72 1011.3
20240613223457 30 44 4.8 14.5 0.00 0.00 0.00 68 1011.0
20240613222504 31 128 9.7 17.7 0.00 0.00 0.00 62 1011.0
20240613221441 31 152 9.7 19.3 0.00 0.00 0.00 63 1010.6
20240613220443 32 190 9.7 20.9 0.00 0.00 0.00 62 1010.4
20240613215442 32 140 9.7 24.1 0.00 0.00 0.00 63 1010.4
20240613214916 32 231 8.0 16.1 0.00 0.00 0.00 64 1010.5
20240613213442 32 195 9.7 20.9 0.00 0.00 0.00 65 1010.4
20240613212431 32 175 8.0 17.7 0.00 0.00 0.00 66 1010.3
20240613211431 32 172 8.0 16.1 0.00 0.00 0.00 65 1010.4
20240613210431 32 193 9.7 17.7 0.00 0.00 0.00 66 1010.5
20240613205432 32 178 11.3 20.9 0.00 0.00 0.00 67 1010.6
20240613204433 32 186 11.3 20.9 0.00 0.00 0.00 69 1010.7
20240613203426 31 205 12.9 24.1 0.00 0.00 0.00 70 1010.7
20240613202426 32 177 12.9 24.1 0.00 0.00 0.00 70 1010.9
20240613201422 32 166 12.9 25.7 0.00 0.00 0.00 70 1011.0
20240613200423 32 175 12.9 24.1 0.00 0.00 0.00 72 1011.0
20240613195425 32 158 11.3 27.4 0.00 0.00 0.00 69 1011.0
20240613194422 33 174 8.0 17.7 0.00 0.00 0.00 62 1011.1
20240613193420 33 211 9.7 19.3 0.00 0.00 0.00 65 1011.2
20240613192857 33 181 6.4 14.5 0.00 0.00 0.00 65 1011.3
20240613191419 33 199 6.4 17.7 0.00 0.00 0.00 64 1011.5
20240613190853 32 136 3.2 11.3 0.00 0.00 0.00 66 1011.6
20240613185420 33 184 6.4 17.7 0.00 0.00 0.00 64 1011.7
20240613184419 32 127 6.4 12.9 0.00 0.00 0.00 68 1011.9
20240613183420 32 176 4.8 14.5 0.00 0.00 0.00 67 1012.0
20240613182419 32 200 4.8 11.3 0.00 0.00 0.00 69 1012.0
20240613181913 31 151 4.8 11.3 0.00 0.00 0.00 71 1012.1
20240613180419 31 162 4.8 12.9 0.00 0.00 0.00 72 1012.1
20240613175419 30 157 3.2 8.0 0.00 0.00 0.00 72 1012.1
20240613174421 30 181 3.2 8.0 0.00 0.00 0.00 72 1012.0
20240613173420 30 232 1.6 6.4 0.00 0.00 0.00 73 1012.0
20240613172417 30 157 4.8 11.3 0.00 0.00 0.00 76 1012.3
20240613171419 30 197 4.8 12.9 0.00 0.00 0.00 75 1012.3
20240613170414 30 177 6.4 12.9 0.00 0.00 0.00 75 1012.3
20240613165414 31 206 4.8 12.9 0.00 0.00 0.00 73 1012.2
20240613164414 30 136 3.2 9.7 0.00 0.00 0.00 72 1012.1
20240613163415 31 129 3.2 12.9 0.00 0.00 0.00 72 1012.1
20240613162415 30 152 3.2 9.7 0.00 0.00 0.00 78 1012.2
20240613161416 30 39 3.2 6.4 0.00 0.00 0.00 76 1012.1
20240613160417 30 227 3.2 8.0 0.00 0.00 0.00 77 1012.1
20240613155406 30 15 3.2 11.3 0.00 0.00 0.00 76 1012.2
20240613154404 30 313 3.2 8.0 0.00 0.00 0.00 77 1012.1
20240613153405 29 354 1.6 6.4 0.00 0.00 0.00 79 1012.2
20240613152404 28 0 1.6 6.4 0.00 0.00 0.00 82 1012.2
20240613151404 28 338 1.6 4.8 0.00 0.00 0.00 82 1012.2
20240613150402 28 337 3.2 8.0 0.00 0.00 0.00 80 1012.3
20240613145402 28 321 3.2 6.4 0.00 0.00 0.00 81 1012.4
20240613144404 28 321 3.2 4.8 0.00 0.00 0.00 83 1012.5
20240613143402 27 301 3.2 6.4 0.00 0.00 0.00 82 1012.5
20240613142401 27 310 3.2 8.0 0.00 0.00 0.00 84 1012.4
20240613141400 27 269 3.2 6.4 0.00 0.00 0.00 85 1012.4
20240613140401 27 269 4.8 8.0 0.00 0.00 0.00 85 1012.4
20240613135401 27 212 1.6 9.7 0.00 0.00 0.00 83 1012.4
20240613134401 27 168 1.6 4.8 0.00 0.00 0.00 84 1012.5
20240613133350 27 160 4.8 11.3 0.00 0.00 0.00 84 1012.5
20240613132352 28 202 4.8 12.9 0.00 0.00 0.00 83 1012.4
20240613131350 27 249 1.6 6.4 0.00 0.00 0.00 85 1012.1
20240613130839 27 216 1.6 6.4 0.00 0.00 0.00 86 1011.9